Time;durP1;ratioP1;P1;durP2;ratioP2;P2;SDS_P1;SDS_P2;PMS_P1;PMS_P2;Temp;Humidity;BMP_temperature;BMP_pressure;BME280_temperature;BME280_humidity;BME280_pressure;Samples;Min_cycle;Max_cycle;Signal;HPM_P1;HPM_P2
2023/03/14 00:00:15;;;;;;;18.75;4.70;;;10.60;99.90;;;;;;5040873;28;20045;-63
2023/03/14 00:02:41;;;;;;;24.30;5.35;;;10.70;99.90;;;;;;5051174;28;20071;-62
2023/03/14 00:05:07;;;;;;;14.90;4.72;;;10.70;99.90;;;;;;5034770;28;20030;-62
2023/03/14 00:07:37;;;;;;;20.35;5.13;;;10.80;99.90;;;;;;5045065;28;20611;-63
2023/03/14 00:10:05;;;;;;;17.10;4.68;;;11.00;99.90;;;;;;5051309;28;20041;-63
2023/03/14 00:12:31;;;;;;;19.42;4.55;;;11.00;99.90;;;;;;5043785;28;20163;-63
2023/03/14 00:14:57;;;;;;;24.83;5.80;;;11.00;99.90;;;;;;5050649;28;20033;-64
2023/03/14 00:17:23;;;;;;;19.38;5.85;;;11.10;99.90;;;;;;5054714;28;20037;-64
2023/03/14 00:19:52;;;;;;;23.60;5.78;;;10.90;99.90;;;;;;5048703;28;20068;-65
2023/03/14 00:22:17;;;;;;;17.08;4.47;;;10.80;99.90;;;;;;5045748;28;20037;-64
2023/03/14 00:24:43;;;;;;;15.35;4.93;;;10.60;99.90;;;;;;5054708;28;20036;-64
2023/03/14 00:27:09;;;;;;;23.40;5.95;;;10.60;99.90;;;;;;5055219;28;20486;-64
2023/03/14 00:29:34;;;;;;;27.15;6.32;;;10.40;99.90;;;;;;5050226;28;20059;-64
2023/03/14 00:32:00;;;;;;;25.88;6.70;;;10.30;99.90;;;;;;5031916;28;20051;-64
2023/03/14 00:34:30;;;;;;;25.35;7.25;;;10.30;99.90;;;;;;5054852;28;20091;-64
2023/03/14 00:36:56;;;;;;;21.30;6.65;;;10.30;99.90;;;;;;5051073;28;20052;-64
2023/03/14 00:39:22;;;;;;;15.23;6.43;;;10.30;99.90;;;;;;5043988;28;20040;-64
2023/03/14 00:41:47;;;;;;;24.45;6.25;;;10.30;99.90;;;;;;5054360;28;20073;-64
2023/03/14 00:44:13;;;;;;;23.40;6.32;;;10.30;99.90;;;;;;5051509;28;20104;-64
2023/03/14 00:46:39;;;;;;;23.52;6.60;;;10.20;99.90;;;;;;5040753;28;20032;-64
2023/03/14 00:49:04;;;;;;;19.77;5.97;;;10.20;99.90;;;;;;5052931;28;20037;-64
2023/03/14 00:51:30;;;;;;;21.08;6.30;;;10.20;99.90;;;;;;5054647;28;20067;-64
2023/03/14 00:53:55;;;;;;;21.00;6.85;;;10.30;99.90;;;;;;5045506;28;20067;-65
2023/03/14 00:56:21;;;;;;;22.65;6.88;;;10.30;99.90;;;;;;5053854;28;20101;-64
2023/03/14 00:58:46;;;;;;;22.50;7.35;;;10.40;99.90;;;;;;5053329;28;20075;-64
2023/03/14 01:01:18;;;;;;;18.48;7.25;;;10.40;99.90;;;;;;5054112;28;20041;-64
2023/03/14 01:03:44;;;;;;;16.45;5.13;;;10.30;99.90;;;;;;5029035;28;20042;-64
2023/03/14 01:06:10;;;;;;;14.40;5.32;;;10.20;99.90;;;;;;5051550;28;20040;-64
2023/03/14 01:08:36;;;;;;;17.77;5.95;;;10.10;99.90;;;;;;5053849;28;20108;-64
2023/03/14 01:11:07;;;;;;;14.10;5.25;;;10.00;99.90;;;;;;5040891;28;20483;-64
2023/03/14 01:13:32;;;;;;;15.40;5.47;;;10.00;99.90;;;;;;5052920;28;20479;-64
2023/03/14 01:16:04;;;;;;;14.80;5.28;;;10.00;99.90;;;;;;5053822;28;20044;-63
2023/03/14 01:18:29;;;;;;;19.95;5.95;;;9.90;99.90;;;;;;5054005;28;20095;-63
2023/03/14 01:20:55;;;;;;;16.45;6.45;;;9.90;99.90;;;;;;5045422;28;20045;-64
2023/03/14 01:23:20;;;;;;;22.67;6.90;;;9.90;99.90;;;;;;5053715;28;20041;-64
2023/03/14 01:25:46;;;;;;;17.60;6.05;;;9.90;99.90;;;;;;5053319;28;20395;-64
2023/03/14 01:28:11;;;;;;;17.50;6.70;;;9.90;99.90;;;;;;5045489;28;20472;-63
2023/03/14 01:30:37;;;;;;;25.17;6.43;;;9.90;99.90;;;;;;5049432;28;20043;-63
2023/03/14 01:33:02;;;;;;;18.92;6.30;;;9.90;99.90;;;;;;5053603;28;20047;-63
2023/03/14 01:35:28;;;;;;;16.45;5.68;;;9.90;99.90;;;;;;5053908;28;20047;-64
2023/03/14 01:37:53;;;;;;;17.63;6.15;;;9.90;99.90;;;;;;5040454;28;20079;-64
2023/03/14 01:40:19;;;;;;;21.70;5.50;;;9.90;99.90;;;;;;5045691;28;20068;-64
2023/03/14 01:42:47;;;;;;;13.82;5.40;;;9.90;99.90;;;;;;5053609;28;20052;-64
2023/03/14 01:45:50;;;;;;;24.25;5.68;;;10.00;99.90;;;;;;5022946;28;20063;-63
2023/03/14 01:48:15;;;;;;;14.38;4.82;;;10.00;99.90;;;;;;5044096;28;20029;-64
2023/03/14 01:50:41;;;;;;;16.70;5.68;;;10.00;99.90;;;;;;5053272;28;20033;-63
2023/03/14 01:53:07;;;;;;;17.30;5.18;;;10.10;99.90;;;;;;5049452;28;20068;-64
2023/03/14 01:55:33;;;;;;;17.58;5.78;;;10.30;99.90;;;;;;5052570;28;20037;-63
2023/03/14 01:58:04;;;;;;;18.45;4.45;;;10.40;99.90;;;;;;5052834;28;20103;-64
2023/03/14 02:00:30;;;;;;;18.52;5.13;;;10.50;99.90;;;;;;5046501;28;20049;-64
2023/03/14 02:03:04;;;;;;;18.48;5.93;;;10.50;99.90;;;;;;5052012;28;20484;-64
2023/03/14 02:05:34;;;;;;;13.77;5.45;;;10.50;99.90;;;;;;5052623;28;20033;-64
2023/03/14 02:08:01;;;;;;;20.17;4.85;;;10.50;99.90;;;;;;5053047;28;20111;-63
2023/03/14 02:10:31;;;;;;;20.17;4.65;;;10.50;99.90;;;;;;5041621;28;20025;-64
2023/03/14 02:13:01;;;;;;;14.15;4.57;;;10.40;99.90;;;;;;5047495;28;20037;-64
2023/03/14 02:15:27;;;;;;;14.48;4.50;;;10.40;99.90;;;;;;5052988;28;20040;-64
2023/03/14 02:17:53;;;;;;;14.85;4.60;;;10.40;99.90;;;;;;5043013;28;20033;-63
2023/03/14 02:20:18;;;;;;;20.65;4.93;;;10.30;99.90;;;;;;5031521;28;20037;-64
2023/03/14 02:22:46;;;;;;;16.13;4.63;;;10.30;99.90;;;;;;5041632;28;20064;-64
2023/03/14 02:25:45;;;;;;;20.05;4.82;;;10.30;99.90;;;;;;5052778;28;20076;-63
2023/03/14 02:28:12;;;;;;;15.93;3.72;;;10.40;99.90;;;;;;5049078;28;20060;-63
2023/03/14 02:30:38;;;;;;;10.43;4.22;;;10.50;99.90;;;;;;5037053;28;20037;-64
2023/03/14 02:33:08;;;;;;;10.23;3.30;;;10.60;99.90;;;;;;5081470;22;20014;-65
2023/03/14 02:35:43;;;;;;;11.45;3.97;;;10.60;99.90;;;;;;5049792;28;20048;-65
2023/03/14 02:38:31;;;;;;;10.27;3.65;;;10.60;99.90;;;;;;5048958;28;20063;-65
2023/03/14 02:40:57;;;;;;;11.18;3.50;;;10.60;99.90;;;;;;5051769;28;20044;-65
2023/03/14 02:43:23;;;;;;;11.77;3.33;;;10.60;99.90;;;;;;5052309;28;20045;-65
2023/03/14 02:45:50;;;;;;;12.27;3.42;;;10.60;99.90;;;;;;5046344;28;20270;-65
2023/03/14 02:48:20;;;;;;;11.18;3.33;;;10.60;99.90;;;;;;5044540;28;20495;-65
2023/03/14 02:50:48;;;;;;;11.50;2.90;;;10.50;99.90;;;;;;5052085;28;20513;-65
2023/03/14 02:53:18;;;;;;;8.80;2.97;;;10.40;99.90;;;;;;5044998;28;20041;-65
2023/03/14 02:55:47;;;;;;;10.27;3.17;;;10.30;99.90;;;;;;5044293;28;20111;-65
2023/03/14 02:58:13;;;;;;;9.50;3.50;;;10.30;99.90;;;;;;5052083;28;20037;-65
2023/03/14 03:00:39;;;;;;;11.32;3.45;;;10.20;99.90;;;;;;5048281;28;20289;-65
2023/03/14 03:03:05;;;;;;;11.00;3.67;;;10.10;99.90;;;;;;5032256;28;20456;-64
2023/03/14 03:05:32;;;;;;;13.32;3.75;;;10.10;99.90;;;;;;5049948;28;20037;-64
2023/03/14 03:07:58;;;;;;;13.95;4.15;;;10.00;99.90;;;;;;5050289;28;20040;-64
2023/03/14 03:10:23;;;;;;;10.60;3.20;;;10.00;99.90;;;;;;5012412;28;20049;-64
2023/03/14 03:12:50;;;;;;;7.90;3.60;;;10.00;99.90;;;;;;5041844;28;20044;-64
2023/03/14 03:15:15;;;;;;;7.78;3.33;;;10.00;99.90;;;;;;5052044;28;20529;-64
2023/03/14 03:17:41;;;;;;;10.00;3.47;;;10.00;99.90;;;;;;5050689;28;20080;-64
2023/03/14 03:20:08;;;;;;;11.50;3.42;;;10.00;99.90;;;;;;5040994;28;20136;-64
2023/03/14 03:22:38;;;;;;;11.05;3.65;;;10.00;99.90;;;;;;5047787;28;20044;-63
2023/03/14 03:25:06;;;;;;;11.13;3.90;;;9.90;99.90;;;;;;5050137;28;20029;-64
2023/03/14 03:27:33;;;;;;;11.13;3.33;;;9.90;99.90;;;;;;5040719;28;20403;-64
2023/03/14 03:29:59;;;;;;;10.23;3.75;;;9.90;99.90;;;;;;5042475;28;20061;-63
2023/03/14 03:32:24;;;;;;;13.48;4.15;;;9.90;99.90;;;;;;5051508;28;20037;-63
2023/03/14 03:34:50;;;;;;;13.10;4.00;;;9.90;99.90;;;;;;5051193;28;20078;-64
2023/03/14 03:37:16;;;;;;;13.05;3.97;;;9.80;99.90;;;;;;5038297;28;20040;-64
2023/03/14 03:39:41;;;;;;;14.70;3.75;;;9.80;99.90;;;;;;5046827;28;20426;-64
2023/03/14 03:42:07;;;;;;;12.77;4.10;;;9.80;99.90;;;;;;5051314;28;20394;-64
2023/03/14 03:44:32;;;;;;;11.52;3.60;;;9.80;99.90;;;;;;5038523;28;20037;-64
2023/03/14 03:46:58;;;;;;;8.98;3.75;;;9.80;99.90;;;;;;5048823;28;20116;-64
2023/03/14 03:49:24;;;;;;;13.23;4.20;;;9.80;99.90;;;;;;5049408;28;20124;-64
2023/03/14 03:51:49;;;;;;;11.82;3.80;;;9.80;99.90;;;;;;5050146;28;20048;-64
2023/03/14 03:54:15;;;;;;;11.98;3.70;;;9.70;99.90;;;;;;5033657;28;20036;-64
2023/03/14 03:56:40;;;;;;;13.40;3.08;;;9.70;99.90;;;;;;5036934;28;20060;-64
2023/03/14 03:59:06;;;;;;;10.35;3.42;;;9.80;99.90;;;;;;5047125;28;20056;-64
2023/03/14 04:01:32;;;;;;;7.97;3.47;;;9.80;99.90;;;;;;5033137;28;20079;-64
2023/03/14 04:03:57;;;;;;;8.73;3.33;;;9.80;99.90;;;;;;5048255;28;20118;-64
2023/03/14 04:06:23;;;;;;;8.25;3.85;;;9.80;99.90;;;;;;5051117;28;20052;-65
2023/03/14 04:08:48;;;;;;;14.82;4.25;;;9.80;99.90;;;;;;5032863;28;20033;-64
2023/03/14 04:11:14;;;;;;;14.82;4.32;;;9.70;99.90;;;;;;5051927;28;20432;-64
2023/03/14 04:13:39;;;;;;;12.50;4.10;;;9.70;99.90;;;;;;5045103;28;20431;-65
2023/03/14 04:16:15;;;;;;;11.32;4.07;;;9.70;99.90;;;;;;5045191;28;20049;-64
2023/03/14 04:18:41;;;;;;;9.85;3.90;;;9.70;99.90;;;;;;5044505;28;20486;-64
2023/03/14 04:21:06;;;;;;;11.07;4.60;;;9.60;99.90;;;;;;5050992;28;20048;-63
2023/03/14 04:23:33;;;;;;;12.38;4.93;;;9.70;99.90;;;;;;5051042;28;20052;-64
2023/03/14 04:25:59;;;;;;;12.77;4.63;;;9.70;99.90;;;;;;5020684;28;20502;-64
2023/03/14 04:28:25;;;;;;;12.10;5.18;;;9.70;99.90;;;;;;5024734;28;20068;-64
2023/03/14 04:30:50;;;;;;;10.30;4.50;;;9.70;99.90;;;;;;5050799;28;20048;-65
2023/03/14 04:33:17;;;;;;;11.30;4.80;;;9.70;99.90;;;;;;5006174;28;20087;-64
2023/03/14 04:35:43;;;;;;;9.82;4.97;;;9.70;99.90;;;;;;5036030;28;20045;-64
2023/03/14 04:38:10;;;;;;;12.82;5.68;;;9.70;99.90;;;;;;5024686;28;20041;-64
2023/03/14 04:40:40;;;;;;;10.07;4.80;;;9.70;99.90;;;;;;5033102;28;20553;-64
2023/03/14 04:43:07;;;;;;;14.77;5.85;;;9.70;99.90;;;;;;5037868;28;20110;-64
2023/03/14 04:45:32;;;;;;;13.90;6.03;;;9.70;99.90;;;;;;5041419;28;20033;-64
2023/03/14 04:47:58;;;;;;;13.77;5.70;;;9.70;99.90;;;;;;5037370;28;20030;-64
2023/03/14 04:50:23;;;;;;;10.88;4.82;;;9.70;99.90;;;;;;5030385;28;20399;-64
2023/03/14 04:52:49;;;;;;;11.45;6.03;;;9.70;99.90;;;;;;5036076;28;20132;-64
2023/03/14 04:55:15;;;;;;;11.02;4.55;;;9.70;99.90;;;;;;5032852;28;20041;-64
2023/03/14 04:57:40;;;;;;;15.50;5.43;;;9.70;99.90;;;;;;5012085;28;20037;-64
2023/03/14 05:00:07;;;;;;;12.07;4.82;;;9.70;99.90;;;;;;5041339;28;20065;-64
2023/03/14 05:02:34;;;;;;;10.82;4.97;;;9.70;99.90;;;;;;5052643;28;20091;-64
2023/03/14 05:09:29;;;;;;;8.27;4.45;;;9.70;99.90;;;;;;5081138;28;20044;-64
2023/03/14 05:15:20;;;;;;;12.35;4.65;;;9.60;99.90;;;;;;5040532;28;20033;-66
2023/03/14 05:17:46;;;;;;;9.23;4.15;;;9.60;99.90;;;;;;5051055;28;20037;-65
2023/03/14 05:20:12;;;;;;;13.13;4.72;;;9.60;99.90;;;;;;5052316;28;20098;-65
2023/03/14 05:22:39;;;;;;;10.75;4.40;;;9.60;99.90;;;;;;5042734;28;20037;-65
2023/03/14 05:25:05;;;;;;;11.40;4.00;;;9.50;99.90;;;;;;5048442;28;20557;-65
2023/03/14 05:27:30;;;;;;;11.38;4.88;;;9.50;99.90;;;;;;5068122;22;20125;-64
2023/03/14 05:29:56;;;;;;;12.27;4.60;;;9.50;99.90;;;;;;5052077;28;20119;-66
2023/03/14 05:32:21;;;;;;;12.23;4.18;;;9.50;99.90;;;;;;5025964;28;20040;-65
2023/03/14 05:34:47;;;;;;;12.10;4.50;;;9.50;99.90;;;;;;5050459;28;20036;-64
2023/03/14 05:37:13;;;;;;;17.55;4.60;;;9.50;99.90;;;;;;5027503;28;20048;-64
2023/03/14 05:39:38;;;;;;;12.82;4.43;;;9.50;99.90;;;;;;5048346;28;20037;-64
2023/03/14 05:42:04;;;;;;;12.57;3.80;;;9.50;99.90;;;;;;5039611;28;20128;-64
2023/03/14 05:44:29;;;;;;;10.90;3.88;;;9.50;99.90;;;;;;5053255;28;20025;-64
2023/03/14 05:46:55;;;;;;;13.75;4.25;;;9.60;99.90;;;;;;5053206;28;20040;-64
2023/03/14 05:49:20;;;;;;;11.35;3.92;;;9.60;99.90;;;;;;5045313;28;20041;-64
2023/03/14 05:51:46;;;;;;;10.82;3.63;;;9.60;99.90;;;;;;5041229;28;20045;-64
2023/03/14 05:54:11;;;;;;;18.55;4.75;;;9.60;99.90;;;;;;5052864;28;20115;-64
2023/03/14 05:56:37;;;;;;;18.52;4.45;;;9.60;99.90;;;;;;5036655;28;20069;-64
2023/03/14 05:59:03;;;;;;;8.55;3.72;;;9.60;99.90;;;;;;5046032;28;20053;-64
2023/03/14 06:01:29;;;;;;;11.65;3.90;;;9.70;99.90;;;;;;5038345;28;20045;-64
2023/03/14 06:03:55;;;;;;;8.98;3.25;;;9.80;99.90;;;;;;5052478;28;20075;-64
2023/03/14 06:06:20;;;;;;;13.55;3.92;;;9.80;99.90;;;;;;5052875;28;20064;-64
2023/03/14 06:08:46;;;;;;;12.80;4.05;;;9.80;99.90;;;;;;5025945;28;20075;-65
2023/03/14 06:11:12;;;;;;;14.75;4.18;;;9.80;99.90;;;;;;5052155;28;20025;-65
2023/03/14 06:13:37;;;;;;;12.15;3.50;;;9.90;99.90;;;;;;5029322;28;20046;-64
2023/03/14 06:16:03;;;;;;;13.27;3.85;;;9.90;99.90;;;;;;5049547;28;20082;-65
2023/03/14 06:18:28;;;;;;;12.50;4.43;;;9.80;99.90;;;;;;5052305;28;20037;-65
2023/03/14 06:20:55;;;;;;;8.15;4.20;;;9.80;99.90;;;;;;5052805;28;20492;-65
2023/03/14 06:23:21;;;;;;;15.00;4.30;;;9.90;99.90;;;;;;5039296;28;20037;-65
2023/03/14 06:25:47;;;;;;;11.88;4.47;;;9.80;99.90;;;;;;5048699;28;20112;-65
2023/03/14 06:28:12;;;;;;;11.38;3.75;;;9.70;99.90;;;;;;5050690;28;20134;-64
2023/03/14 06:30:38;;;;;;;12.25;4.95;;;9.70;99.90;;;;;;5044219;28;20033;-64
2023/03/14 06:33:03;;;;;;;17.73;5.65;;;9.70;99.90;;;;;;5048603;28;20049;-62
2023/03/14 06:35:29;;;;;;;10.70;4.53;;;9.80;99.90;;;;;;5049480;28;20047;-64
2023/03/14 06:37:55;;;;;;;14.90;4.78;;;9.80;99.90;;;;;;5042018;28;20041;-65
2023/03/14 06:40:20;;;;;;;12.45;4.95;;;9.70;99.90;;;;;;5044168;28;20407;-64
2023/03/14 06:42:46;;;;;;;12.38;4.65;;;9.70;99.90;;;;;;5048989;28;20055;-64
2023/03/14 06:45:12;;;;;;;9.02;3.70;;;9.80;99.90;;;;;;5049524;28;20151;-64
2023/03/14 06:47:38;;;;;;;12.43;4.90;;;9.70;99.90;;;;;;5033631;28;20055;-63
2023/03/14 06:50:08;;;;;;;11.40;4.05;;;9.70;99.90;;;;;;5023936;28;20507;-64
2023/03/14 06:52:33;;;;;;;13.18;5.10;;;9.70;99.90;;;;;;5048943;28;20045;-64
2023/03/14 06:54:59;;;;;;;10.57;4.43;;;9.70;99.90;;;;;;5044132;28;20095;-66
2023/03/14 06:57:24;;;;;;;12.23;5.07;;;9.80;99.90;;;;;;5045683;28;20496;-63
2023/03/14 06:59:50;;;;;;;12.60;5.22;;;9.80;99.90;;;;;;5033977;28;20090;-63
2023/03/14 07:02:16;;;;;;;12.65;4.75;;;9.80;99.90;;;;;;5048945;28;20037;-64
2023/03/14 07:04:41;;;;;;;14.02;4.55;;;9.80;99.90;;;;;;5032724;28;20052;-64
2023/03/14 07:07:07;;;;;;;15.80;5.55;;;9.80;99.90;;;;;;5042926;28;20041;-64
2023/03/14 07:09:33;;;;;;;10.25;4.57;;;9.80;99.90;;;;;;5046825;28;20125;-63
2023/03/14 07:11:59;;;;;;;10.43;4.68;;;9.80;99.90;;;;;;5048792;28;20458;-63
2023/03/14 07:14:25;;;;;;;13.35;4.60;;;9.80;99.90;;;;;;5040857;28;20025;-63
2023/03/14 07:16:50;;;;;;;10.90;4.53;;;9.90;99.90;;;;;;5045176;28;20490;-63
2023/03/14 07:19:16;;;;;;;12.65;5.00;;;9.90;99.90;;;;;;5026945;28;20040;-64
2023/03/14 07:21:41;;;;;;;9.57;4.10;;;9.90;99.90;;;;;;5038037;28;20045;-62
2023/03/14 07:24:07;;;;;;;11.73;4.70;;;9.90;99.90;;;;;;5046541;28;20065;-64
2023/03/14 07:26:33;;;;;;;11.50;3.88;;;9.90;99.90;;;;;;5048593;28;20040;-63
2023/03/14 07:28:59;;;;;;;15.20;4.90;;;9.90;99.90;;;;;;5044064;28;20040;-63
2023/03/14 07:31:24;;;;;;;5.75;2.45;;;9.90;99.90;;;;;;5045994;28;20043;-64
2023/03/14 07:33:50;;;;;;;3.65;1.73;;;9.30;99.90;;;;;;5033572;28;20041;-62
2023/03/14 07:36:16;;;;;;;3.25;1.60;;;9.00;99.90;;;;;;5043011;28;20204;-63
2023/03/14 07:38:41;;;;;;;2.88;1.33;;;8.70;99.90;;;;;;5029355;28;20099;-63
2023/03/14 07:41:07;;;;;;;3.67;1.63;;;8.60;99.90;;;;;;5047248;28;20045;-63
2023/03/14 07:43:33;;;;;;;4.10;1.88;;;8.50;99.90;;;;;;5046995;28;20064;-63
2023/03/14 07:45:59;;;;;;;5.07;2.42;;;8.40;99.90;;;;;;5042878;28;20080;-61
2023/03/14 07:48:26;;;;;;;8.98;2.70;;;8.40;99.90;;;;;;5044816;28;20025;-62
2023/03/14 07:50:53;;;;;;;5.05;2.33;;;8.40;99.90;;;;;;5048502;28;20087;-62
2023/03/14 07:53:19;;;;;;;3.38;1.00;;;8.40;99.90;;;;;;5043707;28;20079;-62
2023/03/14 07:55:45;;;;;;;4.82;0.90;;;8.10;99.90;;;;;;5042336;28;20136;-62
2023/03/14 07:58:11;;;;;;;1.05;0.63;;;7.60;99.90;;;;;;5047891;28;20124;-62
2023/03/14 08:00:37;;;;;;;3.60;1.00;;;7.40;99.90;;;;;;5043881;28;20036;-62
2023/03/14 08:03:03;;;;;;;4.40;1.25;;;7.20;99.90;;;;;;5027698;28;20365;-61
2023/03/14 08:05:28;;;;;;;1.73;1.05;;;7.10;99.90;;;;;;5049001;28;20399;-61
2023/03/14 08:07:54;;;;;;;3.60;0.98;;;7.00;99.90;;;;;;5049533;28;20037;-65
2023/03/14 08:10:23;;;;;;;4.90;1.10;;;7.00;99.90;;;;;;5041628;28;20041;-62
2023/03/14 08:12:50;;;;;;;1.67;0.50;;;6.70;99.90;;;;;;5044918;28;20116;-61
2023/03/14 08:15:15;;;;;;;4.22;0.80;;;6.50;99.90;;;;;;5050921;28;20469;-61
2023/03/14 08:17:41;;;;;;;3.80;0.98;;;6.40;99.90;;;;;;5049894;28;20522;-62
2023/03/14 08:20:09;;;;;;;2.65;0.80;;;6.20;99.90;;;;;;5042368;28;20611;-61
2023/03/14 08:22:35;;;;;;;2.92;0.82;;;6.00;99.90;;;;;;5047047;28;20040;-61
2023/03/14 08:25:00;;;;;;;4.15;0.82;;;5.70;99.90;;;;;;5048195;28;20111;-63
2023/03/14 08:27:26;;;;;;;1.98;0.68;;;5.60;99.90;;;;;;5039130;28;20040;-63
2023/03/14 08:29:51;;;;;;;2.08;0.77;;;5.60;99.90;;;;;;5042627;28;20031;-63
2023/03/14 08:32:17;;;;;;;2.38;0.60;;;5.40;99.90;;;;;;5050063;28;20120;-62
2023/03/14 08:34:42;;;;;;;1.85;0.70;;;5.40;99.90;;;;;;5037696;28;20037;-61
2023/03/14 08:37:08;;;;;;;0.50;0.50;;;5.30;99.90;;;;;;5046770;28;20087;-62
2023/03/14 08:39:33;;;;;;;1.00;0.73;;;5.30;99.90;;;;;;5053676;28;20602;-60
2023/03/14 08:41:59;;;;;;;1.92;0.60;;;5.30;99.90;;;;;;5054072;28;20494;-62
2023/03/14 08:44:24;;;;;;;0.40;0.40;;;5.30;99.90;;;;;;5040345;28;20503;-63
2023/03/14 08:46:50;;;;;;;1.35;0.65;;;5.40;99.90;;;;;;5041687;28;20403;-64
2023/03/14 08:49:15;;;;;;;1.45;0.60;;;5.30;99.90;;;;;;5054316;28;20116;-63
2023/03/14 08:51:41;;;;;;;0.93;0.60;;;5.20;99.90;;;;;;5042447;28;20125;-62
2023/03/14 08:54:10;;;;;;;1.30;0.70;;;5.20;99.90;;;;;;5037753;28;20120;-63
2023/03/14 08:56:37;;;;;;;1.25;0.60;;;5.20;99.90;;;;;;5048967;28;20094;-62
2023/03/14 08:59:03;;;;;;;6.95;0.95;;;5.20;99.90;;;;;;5051411;28;20057;-62
2023/03/14 09:01:29;;;;;;;1.65;0.50;;;5.20;99.90;;;;;;5044368;28;20048;-63
2023/03/14 09:03:54;;;;;;;2.40;0.85;;;5.40;99.90;;;;;;5050715;28;20510;-62
2023/03/14 09:06:20;;;;;;;0.95;0.80;;;5.30;99.90;;;;;;5054442;28;20037;-62
2023/03/14 09:08:46;;;;;;;1.13;0.90;;;5.40;99.90;;;;;;5050342;28;20033;-62
2023/03/14 09:11:11;;;;;;;4.47;1.15;;;5.50;99.90;;;;;;5046882;28;20055;-62
2023/03/14 09:13:37;;;;;;;2.30;0.80;;;5.50;99.90;;;;;;5040420;28;20181;-61
2023/03/14 09:16:03;;;;;;;2.60;0.98;;;5.60;99.90;;;;;;5045971;28;20068;-63
2023/03/14 09:18:29;;;;;;;4.60;1.30;;;5.60;99.90;;;;;;5046518;28;20037;-63
2023/03/14 09:20:55;;;;;;;1.55;0.93;;;5.60;99.90;;;;;;5053095;28;20490;-62
2023/03/14 09:23:21;;;;;;;2.40;1.10;;;5.70;99.90;;;;;;5053603;28;20518;-62
2023/03/14 09:25:46;;;;;;;1.55;0.95;;;5.80;99.90;;;;;;5049352;28;20025;-62
2023/03/14 09:28:12;;;;;;;3.08;1.30;;;5.80;99.90;;;;;;5052805;28;20025;-62
2023/03/14 09:30:38;;;;;;;2.45;1.05;;;5.90;99.90;;;;;;5046735;28;20098;-62
2023/03/14 09:33:04;;;;;;;1.75;0.90;;;5.90;99.90;;;;;;5045701;28;20041;-62
2023/03/14 09:35:29;;;;;;;2.45;0.98;;;6.00;99.90;;;;;;5043468;28;20449;-62
2023/03/14 09:37:55;;;;;;;4.50;1.25;;;6.00;99.90;;;;;;5052977;28;20037;-62
2023/03/14 09:40:23;;;;;;;1.85;0.82;;;6.00;99.90;;;;;;5054028;28;20032;-62
2023/03/14 09:42:51;;;;;;;4.65;1.33;;;5.90;99.90;;;;;;5040286;28;20499;-62
2023/03/14 09:45:40;;;;;;;3.05;1.10;;;6.00;99.90;;;;;;5047255;28;20111;-62
2023/03/14 09:48:11;;;;;;;1.80;0.95;;;5.90;99.90;;;;;;5051489;28;20045;-63
2023/03/14 09:50:41;;;;;;;4.28;1.02;;;5.90;99.90;;;;;;5035739;28;20087;-62
2023/03/14 09:53:14;;;;;;;4.22;1.63;;;6.10;99.90;;;;;;5055452;28;20103;-63
2023/03/14 09:55:41;;;;;;;3.53;1.52;;;6.20;99.90;;;;;;5051421;28;20048;-62
2023/03/14 09:58:14;;;;;;;6.18;1.50;;;6.40;99.90;;;;;;5044238;28;20462;-62
2023/03/14 10:00:40;;;;;;;5.63;1.67;;;6.40;99.90;;;;;;5043464;28;20510;-62
2023/03/14 10:03:11;;;;;;;7.82;1.38;;;6.30;99.90;;;;;;5052799;28;20033;-63
2023/03/14 10:05:37;;;;;;;8.38;1.70;;;6.20;99.90;;;;;;5052952;28;20036;-62
2023/03/14 10:08:03;;;;;;;5.32;1.63;;;6.20;99.90;;;;;;5032007;28;20124;-62
2023/03/14 10:10:28;;;;;;;6.50;1.92;;;6.40;99.90;;;;;;5050778;28;20112;-62
2023/03/14 10:12:56;;;;;;;8.10;1.92;;;6.40;99.90;;;;;;5050832;28;20613;-63
2023/03/14 10:15:26;;;;;;;5.45;1.25;;;6.40;99.90;;;;;;5044355;28;20036;-61
2023/03/14 10:17:52;;;;;;;7.20;1.88;;;6.40;99.90;;;;;;5037419;28;20033;-63
2023/03/14 10:20:36;;;;;;;6.85;1.80;;;6.50;99.90;;;;;;5052626;28;20410;-62
2023/03/14 10:23:03;;;;;;;6.75;1.33;;;6.60;99.90;;;;;;5040312;28;20152;-63
2023/03/14 10:25:36;;;;;;;8.68;2.10;;;6.70;99.90;;;;;;5046344;28;20028;-62
2023/03/14 10:28:04;;;;;;;13.30;2.20;;;6.60;99.90;;;;;;5034157;28;20086;-62
2023/03/14 10:30:43;;;;;;;6.47;2.10;;;6.70;99.90;;;;;;5052649;28;20449;-63
2023/03/14 10:33:18;;;;;;;8.65;1.73;;;6.60;99.90;;;;;;5049405;28;20120;-63
2023/03/14 10:35:44;;;;;;;13.15;2.30;;;6.70;99.90;;;;;;5052009;28;20072;-62
2023/03/14 10:38:16;;;;;;;8.52;1.65;;;6.70;99.90;;;;;;5052758;28;20053;-63
2023/03/14 10:40:49;;;;;;;10.57;2.17;;;6.60;99.90;;;;;;5037534;28;20047;-62
2023/03/14 10:43:19;;;;;;;4.65;1.63;;;6.50;99.90;;;;;;5044127;28;20075;-63
2023/03/14 10:45:52;;;;;;;8.48;2.08;;;6.30;99.90;;;;;;5052096;28;20040;-62
2023/03/14 10:48:24;;;;;;;7.45;1.73;;;6.30;99.90;;;;;;5045068;28;20034;-62
2023/03/14 10:51:10;;;;;;;12.75;2.30;;;6.30;99.90;;;;;;5047360;28;20491;-62
2023/03/14 10:53:42;;;;;;;9.77;2.45;;;6.30;99.90;;;;;;5046821;28;20068;-63
2023/03/14 10:56:15;;;;;;;18.98;2.63;;;6.20;99.90;;;;;;5048136;28;20051;-63
2023/03/14 10:58:50;;;;;;;13.18;2.85;;;6.10;99.90;;;;;;5034845;28;20495;-63
2023/03/14 11:01:38;;;;;;;11.93;2.38;;;6.00;99.90;;;;;;5044100;28;20234;-63
2023/03/14 11:04:09;;;;;;;13.90;2.38;;;6.00;99.90;;;;;;5051369;28;20464;-63
2023/03/14 11:07:03;;;;;;;18.40;3.05;;;6.20;99.90;;;;;;5040081;28;20398;-62
2023/03/14 11:09:38;;;;;;;10.98;2.63;;;6.20;99.90;;;;;;5035424;28;20048;-62
2023/03/14 11:12:23;;;;;;;11.48;2.58;;;6.40;99.90;;;;;;5051946;28;20064;-63
2023/03/14 11:14:55;;;;;;;12.25;2.55;;;6.70;99.90;;;;;;5037934;28;20032;-62
2023/03/14 11:17:34;;;;;;;16.00;2.40;;;6.90;99.90;;;;;;5050764;28;20120;-62
2023/03/14 11:20:21;;;;;;;11.45;2.20;;;7.10;99.90;;;;;;5051666;28;20033;-63
2023/03/14 11:23:09;;;;;;;13.02;2.30;;;7.30;99.90;;;;;;5038492;28;20076;-62
2023/03/14 11:25:44;;;;;;;9.13;2.47;;;7.40;99.90;;;;;;5051274;28;20052;-62
2023/03/14 11:28:25;;;;;;;10.82;2.28;;;7.30;99.90;;;;;;5074576;22;20052;-61
2023/03/14 11:31:02;;;;;;;14.30;2.63;;;7.40;99.90;;;;;;5039161;28;20119;-61
2023/03/14 11:33:37;;;;;;;8.63;1.85;;;7.30;99.90;;;;;;5050432;28;20566;-60
2023/03/14 11:36:09;;;;;;;9.88;2.17;;;7.30;99.90;;;;;;5051347;28;20116;-61
2023/03/14 11:38:43;;;;;;;6.15;1.92;;;7.50;99.90;;;;;;5042122;28;20091;-61
2023/03/14 11:41:15;;;;;;;8.60;1.88;;;7.60;99.90;;;;;;5050233;28;20426;-60
2023/03/14 11:43:46;;;;;;;5.97;1.83;;;7.60;99.90;;;;;;5051027;28;20029;-61
2023/03/14 11:46:24;;;;;;;12.35;2.08;;;7.60;99.90;;;;;;5044774;28;20041;-63
2023/03/14 11:49:20;;;;;;;9.32;1.98;;;7.40;99.90;;;;;;5033950;28;20037;-64
2023/03/14 11:51:54;;;;;;;9.00;1.67;;;7.30;98.60;;;;;;5047559;28;20033;-63
2023/03/14 11:54:33;;;;;;;9.52;1.52;;;7.30;99.00;;;;;;5043511;28;20108;-64
2023/03/14 11:57:11;;;;;;;18.45;2.55;;;7.40;98.70;;;;;;5051111;28;20055;-63
2023/03/14 11:59:52;;;;;;;8.60;1.60;;;7.40;99.90;;;;;;5038090;28;20033;-63
2023/03/14 12:02:29;;;;;;;10.50;1.75;;;7.50;99.90;;;;;;5050719;28;20049;-64
2023/03/14 12:05:17;;;;;;;4.65;1.50;;;7.60;99.90;;;;;;5042973;28;20033;-63
2023/03/14 12:08:12;;;;;;;8.50;1.98;;;7.70;99.90;;;;;;5024393;28;20395;-64
2023/03/14 12:10:49;;;;;;;7.78;1.65;;;7.80;99.60;;;;;;5047588;28;20037;-63
2023/03/14 12:13:16;;;;;;;7.30;1.80;;;7.80;97.70;;;;;;5051666;28;20037;-64
2023/03/14 12:16:00;;;;;;;7.47;1.98;;;8.10;99.90;;;;;;5050764;28;20040;-63
2023/03/14 12:18:32;;;;;;;7.60;1.40;;;7.90;97.70;;;;;;5051133;28;20127;-64
2023/03/14 12:21:04;;;;;;;5.72;2.00;;;7.70;98.70;;;;;;5031389;28;20045;-63
2023/03/14 12:23:59;;;;;;;9.15;1.63;;;7.80;99.90;;;;;;5046619;28;20037;-64
2023/03/14 12:26:27;;;;;;;7.50;1.55;;;7.90;99.90;;;;;;5043616;28;20049;-64
2023/03/14 12:28:59;;;;;;;4.85;1.33;;;7.90;99.90;;;;;;5053197;28;20028;-63
2023/03/14 12:31:30;;;;;;;3.65;1.33;;;8.00;97.90;;;;;;5044666;28;20116;-63
2023/03/14 12:34:11;;;;;;;;;;;8.00;96.60;;;;;;5051359;28;20029;-63
2023/03/14 12:36:49;;;;;;;1.75;1.25;;;7.70;93.40;;;;;;5046404;28;19917;-64
2023/03/14 12:39:25;;;;;;;5.63;1.55;;;7.60;93.10;;;;;;5040290;28;20047;-64
2023/03/14 12:42:04;;;;;;;7.25;1.20;;;7.70;95.00;;;;;;5054780;28;20067;-63
2023/03/14 12:44:29;;;;;;;2.92;1.13;;;7.60;93.10;;;;;;5048075;28;20029;-64
2023/03/14 12:47:18;;;;;;;3.35;1.27;;;7.50;93.80;;;;;;5041648;28;20043;-64
2023/03/14 12:49:50;;;;;;;4.38;1.08;;;7.70;94.40;;;;;;5001327;28;20041;-63
2023/03/14 12:52:21;;;;;;;6.30;1.50;;;7.70;94.70;;;;;;5053663;28;20033;-64
2023/03/14 12:55:16;;;;;;;8.45;1.45;;;7.90;96.10;;;;;;5049234;28;20047;-63
2023/03/14 12:58:15;;;;;;;6.15;1.50;;;8.10;94.10;;;;;;5031426;28;20102;-65
2023/03/14 13:00:41;;;;;;;4.32;1.40;;;8.20;95.50;;;;;;5053605;28;20115;-64
2023/03/14 13:03:19;;;;;;;3.85;1.30;;;8.40;96.00;;;;;;5031560;28;20116;-63